createdAt,value
2023-05-15T00:00:59.910Z,16.68
2023-05-15T00:03:39.669Z,16.68
2023-05-15T00:06:16.420Z,16.68
2023-05-15T00:08:54.104Z,16.68
2023-05-15T00:11:30.701Z,16.69
2023-05-15T00:14:08.599Z,16.69
2023-05-15T00:16:45.994Z,16.70
2023-05-15T00:19:25.472Z,16.69
2023-05-15T00:22:02.294Z,16.71
2023-05-15T00:24:42.703Z,16.71
2023-05-15T00:27:19.840Z,16.70
2023-05-15T00:29:55.474Z,16.70
2023-05-15T00:32:33.200Z,16.70
2023-05-15T00:35:11.325Z,16.73
2023-05-15T00:37:47.894Z,16.74
2023-05-15T00:40:28.717Z,16.75
2023-05-15T00:43:05.310Z,16.75
2023-05-15T00:45:41.334Z,16.76
2023-05-15T00:48:20.083Z,16.77
2023-05-15T00:51:00.268Z,16.78
2023-05-15T00:53:35.796Z,16.78
2023-05-15T00:56:13.225Z,16.79
2023-05-15T00:58:52.957Z,16.79
2023-05-15T01:01:28.253Z,16.78
2023-05-15T01:04:06.598Z,16.78
2023-05-15T01:06:44.298Z,16.78
2023-05-15T01:09:21.823Z,16.78
2023-05-15T01:12:03.725Z,16.78
2023-05-15T01:14:41.130Z,16.79
2023-05-15T01:17:16.701Z,16.78
2023-05-15T01:19:56.645Z,16.78
2023-05-15T01:22:50.383Z,16.77
2023-05-15T01:25:56.602Z,16.75
2023-05-15T01:28:40.745Z,16.73
2023-05-15T01:31:23.431Z,16.74
2023-05-15T01:34:04.457Z,16.73
2023-05-15T01:36:49.255Z,16.73
2023-05-15T01:39:31.530Z,16.74
2023-05-15T01:42:12.168Z,16.76
2023-05-15T01:44:55.113Z,16.74
2023-05-15T01:47:36.557Z,16.73
2023-05-15T01:50:17.588Z,16.73
2023-05-15T01:52:55.783Z,16.74
2023-05-15T01:55:33.487Z,16.74
2023-05-15T01:58:21.648Z,16.72
2023-05-15T02:01:00.313Z,16.71
2023-05-15T02:03:41.092Z,16.68
2023-05-15T02:06:21.455Z,16.66
2023-05-15T02:08:57.163Z,16.64
2023-05-15T02:11:33.233Z,16.63
2023-05-15T02:14:11.454Z,16.62
2023-05-15T02:16:51.994Z,16.58
2023-05-15T02:19:28.151Z,16.57
2023-05-15T02:22:06.716Z,16.54
2023-05-15T02:24:44.903Z,16.49
2023-05-15T02:27:27.254Z,16.47
2023-05-15T02:30:18.928Z,16.43
2023-05-15T02:33:10.569Z,16.40
2023-05-15T02:35:55.509Z,16.37
2023-05-15T02:38:36.651Z,16.31
2023-05-15T02:41:15.383Z,16.29
2023-05-15T02:44:02.620Z,16.29
2023-05-15T02:46:42.315Z,16.30
2023-05-15T02:49:19.179Z,16.29
2023-05-15T02:51:55.432Z,16.25
2023-05-15T02:54:32.448Z,16.25
2023-05-15T02:57:08.926Z,16.25
2023-05-15T02:59:44.945Z,16.25
2023-05-15T03:02:21.476Z,16.26
2023-05-15T03:04:57.927Z,16.26
2023-05-15T03:07:32.552Z,16.26
2023-05-15T03:10:10.256Z,16.24
2023-05-15T03:12:44.697Z,16.23
2023-05-15T03:15:21.656Z,16.24
2023-05-15T03:17:57.750Z,16.22
2023-05-15T03:20:37.334Z,16.21
2023-05-15T03:23:17.019Z,16.22
2023-05-15T03:25:53.363Z,16.21
2023-05-15T03:28:29.254Z,16.19
2023-05-15T03:31:06.493Z,16.19
2023-05-15T03:33:46.533Z,16.18
2023-05-15T03:36:23.591Z,16.16
2023-05-15T03:38:59.540Z,16.14
2023-05-15T03:41:35.650Z,16.15
2023-05-15T03:44:10.854Z,16.12
2023-05-15T03:46:50.923Z,16.10
2023-05-15T03:49:26.149Z,16.09
2023-05-15T03:52:04.405Z,16.07
2023-05-15T03:54:41.530Z,16.03
2023-05-15T03:57:18.753Z,16.04
2023-05-15T03:59:56.455Z,16.04
2023-05-15T04:02:33.852Z,15.99
2023-05-15T04:05:14.078Z,15.98
2023-05-15T04:07:48.678Z,15.97
2023-05-15T04:10:24.965Z,15.96
2023-05-15T04:13:04.392Z,15.97
2023-05-15T04:15:41.395Z,15.96
2023-05-15T04:18:18.630Z,15.97
2023-05-15T04:20:56.507Z,15.96
2023-05-15T04:23:32.248Z,15.95
2023-05-15T04:26:06.927Z,15.95
2023-05-15T04:28:56.166Z,15.93
2023-05-15T04:31:41.098Z,15.89
2023-05-15T04:34:16.045Z,15.88
2023-05-15T04:36:55.116Z,15.89
2023-05-15T04:39:32.013Z,15.89
2023-05-15T04:42:12.322Z,15.88
2023-05-15T04:44:49.577Z,15.86
2023-05-15T04:47:26.954Z,15.87
2023-05-15T04:50:03.908Z,15.88
2023-05-15T04:52:38.950Z,15.91
2023-05-15T04:55:15.876Z,15.91
2023-05-15T04:57:53.473Z,15.93
2023-05-15T05:00:31.577Z,15.93
2023-05-15T05:03:10.201Z,15.93
2023-05-15T05:05:46.640Z,15.91
2023-05-15T05:08:21.430Z,15.91
2023-05-15T05:11:01.730Z,15.89
2023-05-15T05:13:38.377Z,15.86
2023-05-15T05:16:14.686Z,15.83
2023-05-15T05:18:52.719Z,15.81
2023-05-15T05:21:29.350Z,15.81
2023-05-15T05:24:06.165Z,15.79
2023-05-15T05:26:41.627Z,15.75
2023-05-15T05:29:19.152Z,15.68
2023-05-15T05:31:57.194Z,15.64
2023-05-15T05:34:34.366Z,15.63
2023-05-15T05:37:13.442Z,15.63
2023-05-15T05:39:47.971Z,15.60
2023-05-15T05:42:34.728Z,15.60
2023-05-15T05:45:21.045Z,15.58
2023-05-15T05:47:59.384Z,15.56
2023-05-15T05:50:36.817Z,15.53
2023-05-15T05:53:14.290Z,15.52
2023-05-15T05:55:50.604Z,15.50
2023-05-15T05:58:27.571Z,15.50
2023-05-15T06:01:06.722Z,15.50
2023-05-15T06:03:45.370Z,15.50
2023-05-15T06:06:22.750Z,15.49
2023-05-15T06:09:03.122Z,15.48
2023-05-15T06:11:39.928Z,15.46
2023-05-15T06:14:18.193Z,15.46
2023-05-15T06:16:59.334Z,15.44
2023-05-15T06:19:36.529Z,15.40
2023-05-15T06:22:13.100Z,15.35
2023-05-15T06:24:52.626Z,15.29
2023-05-15T06:27:35.373Z,15.26
2023-05-15T06:30:23.647Z,15.25
2023-05-15T06:33:07.013Z,15.14
2023-05-15T06:35:50.187Z,15.04
2023-05-15T06:38:48.469Z,14.98
2023-05-15T06:41:24.848Z,14.88
2023-05-15T06:44:02.184Z,14.85
2023-05-15T06:46:37.985Z,14.83
2023-05-15T06:49:19.288Z,14.83
2023-05-15T06:52:03.615Z,14.83
2023-05-15T06:54:43.410Z,14.85
2023-05-15T06:57:20.383Z,14.86
2023-05-15T07:00:03.963Z,14.88
2023-05-15T07:02:44.203Z,14.95
2023-05-15T07:05:25.223Z,15.02
2023-05-15T07:08:04.510Z,15.09
2023-05-15T07:10:43.623Z,15.17
2023-05-15T07:13:23.352Z,15.21
2023-05-15T07:16:05.664Z,15.25
2023-05-15T07:18:44.667Z,15.29
2023-05-15T07:21:22.115Z,15.34
2023-05-15T07:23:58.659Z,15.35
2023-05-15T07:26:59.152Z,15.36
2023-05-15T07:29:38.744Z,15.37
2023-05-15T07:32:21.513Z,15.37
2023-05-15T07:35:00.622Z,15.39
2023-05-15T07:37:40.498Z,15.39
2023-05-15T07:40:25.915Z,15.38
2023-05-15T07:43:02.512Z,15.36
2023-05-15T07:45:38.795Z,15.29
2023-05-15T07:48:22.062Z,15.22
2023-05-15T07:50:59.629Z,15.17
2023-05-15T07:53:39.971Z,15.14
2023-05-15T07:56:17.867Z,15.05
2023-05-15T07:58:58.056Z,15.02
2023-05-15T08:01:37.976Z,15.00
2023-05-15T08:04:18.171Z,14.96
2023-05-15T08:06:57.247Z,14.96
2023-05-15T08:09:38.766Z,14.98
2023-05-15T08:12:26.839Z,15.03
2023-05-15T08:15:09.984Z,15.08
2023-05-15T08:17:48.743Z,15.16
2023-05-15T08:20:25.798Z,15.23
2023-05-15T08:23:09.441Z,15.25
2023-05-15T08:25:44.612Z,15.23
2023-05-15T08:28:23.765Z,15.30
2023-05-15T08:31:01.603Z,15.36
2023-05-15T08:33:38.304Z,15.41
2023-05-15T08:36:22.995Z,15.46
2023-05-15T08:39:00.701Z,15.47
2023-05-15T08:41:51.042Z,15.49
2023-05-15T08:44:33.291Z,15.45
2023-05-15T08:47:12.775Z,15.39
2023-05-15T08:50:06.008Z,15.31
2023-05-15T08:52:44.684Z,15.26
2023-05-15T08:55:26.586Z,15.29
2023-05-15T08:58:07.687Z,15.33
2023-05-15T09:00:45.674Z,15.36
2023-05-15T09:03:27.028Z,15.33
2023-05-15T09:06:03.849Z,15.37
2023-05-15T09:08:40.900Z,15.33
2023-05-15T09:11:24.150Z,15.35
2023-05-15T09:14:01.624Z,15.36
2023-05-15T09:16:40.758Z,15.31
2023-05-15T09:19:16.944Z,15.29
2023-05-15T09:22:01.186Z,15.28
2023-05-15T09:24:45.986Z,15.23
2023-05-15T09:27:22.348Z,15.22
2023-05-15T09:30:12.499Z,15.23
2023-05-15T09:32:55.518Z,15.23
2023-05-15T09:35:34.559Z,15.27
2023-05-15T09:38:16.801Z,15.36
2023-05-15T09:41:13.934Z,15.40
2023-05-15T09:43:54.903Z,15.34
2023-05-15T09:46:39.906Z,15.34
2023-05-15T09:49:15.787Z,15.29
2023-05-15T09:52:05.498Z,15.16
2023-05-15T09:54:47.503Z,15.08
2023-05-15T09:57:34.535Z,14.98
2023-05-15T10:00:32.075Z,14.92
2023-05-15T10:03:12.561Z,14.74
2023-05-15T10:05:47.945Z,14.67
2023-05-15T10:08:30.034Z,14.67
2023-05-15T10:11:14.783Z,14.71
2023-05-15T10:14:08.214Z,14.72
2023-05-15T10:16:47.983Z,14.73
2023-05-15T10:19:30.319Z,14.74
2023-05-15T10:22:14.575Z,14.79
2023-05-15T10:25:00.368Z,14.78
2023-05-15T10:27:40.887Z,14.76
2023-05-15T10:30:20.449Z,14.74
2023-05-15T10:32:59.319Z,14.75
2023-05-15T10:35:34.769Z,14.76
2023-05-15T10:38:13.026Z,14.80
2023-05-15T10:40:48.799Z,14.83
2023-05-15T10:43:37.238Z,14.81
2023-05-15T10:46:12.210Z,14.79
2023-05-15T10:48:49.811Z,14.76
2023-05-15T10:51:31.617Z,14.73
2023-05-15T10:54:11.462Z,14.67
2023-05-15T10:56:52.479Z,14.62
2023-05-15T10:59:36.444Z,14.62
2023-05-15T11:02:29.738Z,14.56
2023-05-15T11:05:13.034Z,14.52
2023-05-15T11:08:29.886Z,14.56
2023-05-15T11:11:08.235Z,14.57
2023-05-15T11:14:16.878Z,14.55
2023-05-15T11:17:05.934Z,14.54
2023-05-15T11:19:58.774Z,14.54
2023-05-15T11:22:37.158Z,14.55
2023-05-15T11:25:17.898Z,14.56
2023-05-15T11:27:59.871Z,14.60
2023-05-15T11:30:44.542Z,14.60
2023-05-15T11:33:21.142Z,14.56
2023-05-15T11:36:03.072Z,14.52
2023-05-15T11:38:44.101Z,14.49
2023-05-15T11:41:28.176Z,14.55
2023-05-15T11:44:05.920Z,14.56
2023-05-15T11:46:40.722Z,14.54
2023-05-15T11:49:16.976Z,14.56
2023-05-15T11:51:54.944Z,14.56
2023-05-15T11:54:30.207Z,14.61
2023-05-15T11:57:09.083Z,14.68
2023-05-15T11:59:47.001Z,14.70
2023-05-15T12:02:25.527Z,14.67
2023-05-15T12:05:00.142Z,14.65
2023-05-15T12:07:38.602Z,14.69
2023-05-15T12:10:16.034Z,14.66
2023-05-15T12:12:51.325Z,14.65
2023-05-15T12:15:28.515Z,14.66
2023-05-15T12:18:09.995Z,14.65
2023-05-15T12:20:50.501Z,14.66
2023-05-15T12:23:27.348Z,14.66
2023-05-15T12:26:05.221Z,14.68
2023-05-15T12:28:41.061Z,14.68
2023-05-15T12:31:18.233Z,14.69
2023-05-15T12:33:52.991Z,14.68
2023-05-15T12:36:30.083Z,14.62
2023-05-15T12:39:10.986Z,14.60
2023-05-15T12:41:47.796Z,14.59
2023-05-15T12:44:27.861Z,14.57
2023-05-15T12:47:07.730Z,14.61
2023-05-15T12:49:44.055Z,14.58
2023-05-15T12:52:20.950Z,14.56
2023-05-15T12:54:57.644Z,14.57
2023-05-15T12:57:36.275Z,14.56
2023-05-15T13:00:16.746Z,14.57
2023-05-15T13:02:54.686Z,14.59
2023-05-15T13:05:36.968Z,14.61
2023-05-15T13:08:19.718Z,14.62
2023-05-15T13:11:01.604Z,14.63
2023-05-15T13:13:51.935Z,14.64
2023-05-15T13:16:39.352Z,14.70
2023-05-15T13:19:16.275Z,14.72
2023-05-15T13:21:56.859Z,14.72
2023-05-15T13:24:32.987Z,14.78
2023-05-15T13:27:07.974Z,14.81
2023-05-15T13:29:42.762Z,14.82
2023-05-15T13:32:18.158Z,14.80
2023-05-15T13:34:59.471Z,14.73
2023-05-15T13:37:35.730Z,14.68
2023-05-15T13:40:17.320Z,14.66
2023-05-15T13:42:51.721Z,14.65
2023-05-15T13:45:27.648Z,14.63
2023-05-15T13:48:04.834Z,14.63
2023-05-15T13:50:44.561Z,14.61
2023-05-15T13:53:20.123Z,14.61
2023-05-15T13:56:05.091Z,14.60
2023-05-15T13:58:43.066Z,14.59
2023-05-15T14:01:18.932Z,14.59
2023-05-15T14:04:13.408Z,14.58
2023-05-15T14:06:49.160Z,14.61
2023-05-15T14:09:28.539Z,14.62
2023-05-15T14:12:02.469Z,14.61
2023-05-15T14:14:37.575Z,14.63
2023-05-15T14:17:14.091Z,14.62
2023-05-15T14:19:52.522Z,14.61
2023-05-15T14:22:27.851Z,14.58
2023-05-15T14:25:04.502Z,14.58
2023-05-15T14:27:42.694Z,14.56
2023-05-15T14:30:20.811Z,14.55
2023-05-15T14:33:03.062Z,14.56
2023-05-15T14:35:41.153Z,14.58
2023-05-15T14:38:26.101Z,14.61
2023-05-15T14:41:04.207Z,14.63
2023-05-15T14:43:44.616Z,14.64
2023-05-15T14:46:26.400Z,14.65
2023-05-15T14:49:06.388Z,14.67
2023-05-15T14:51:43.914Z,14.71
2023-05-15T14:54:21.151Z,14.73
2023-05-15T14:56:57.911Z,14.74
2023-05-15T14:59:42.753Z,14.77
2023-05-15T15:02:21.096Z,14.79
2023-05-15T15:04:58.847Z,14.82
2023-05-15T15:07:51.690Z,14.85
2023-05-15T15:10:27.372Z,14.85
2023-05-15T15:13:06.444Z,14.85
2023-05-15T15:15:44.822Z,14.89
2023-05-15T15:18:22.934Z,14.95
2023-05-15T15:21:00.486Z,14.94
2023-05-15T15:23:36.805Z,14.96
2023-05-15T15:26:13.678Z,14.99
2023-05-15T15:28:48.945Z,14.98
2023-05-15T15:31:24.217Z,15.01
2023-05-15T15:34:04.428Z,15.02
2023-05-15T15:36:42.054Z,15.04
2023-05-15T15:39:17.485Z,15.08
2023-05-15T15:41:54.561Z,15.09
2023-05-15T15:44:29.166Z,15.09
2023-05-15T15:47:06.931Z,15.12
2023-05-15T15:49:44.335Z,15.15
2023-05-15T15:52:20.286Z,15.18
2023-05-15T15:54:56.777Z,15.18
2023-05-15T15:57:33.447Z,15.20
2023-05-15T16:00:12.464Z,15.23
2023-05-15T16:02:49.472Z,15.24
2023-05-15T16:05:24.171Z,15.24
2023-05-15T16:08:01.685Z,15.24
2023-05-15T16:10:37.138Z,15.24
2023-05-15T16:13:12.011Z,15.25
2023-05-15T16:15:47.441Z,15.26
2023-05-15T16:18:23.421Z,15.25
2023-05-15T16:20:59.280Z,15.23
2023-05-15T16:23:39.376Z,15.20
2023-05-15T16:26:15.197Z,15.16
2023-05-15T16:28:50.329Z,15.15
2023-05-15T16:31:26.788Z,15.10
2023-05-15T16:34:04.713Z,15.11
2023-05-15T16:36:43.498Z,15.11
2023-05-15T16:39:19.292Z,15.12
2023-05-15T16:41:59.516Z,15.11
2023-05-15T16:44:35.399Z,15.11
2023-05-15T16:47:09.101Z,15.14
2023-05-15T16:49:45.336Z,15.15
2023-05-15T16:52:21.949Z,15.17
2023-05-15T16:54:57.489Z,15.19
2023-05-15T16:57:32.332Z,15.22
2023-05-15T17:00:13.052Z,15.25
2023-05-15T17:02:51.449Z,15.30
2023-05-15T17:05:26.425Z,15.34
2023-05-15T17:08:02.885Z,15.39
2023-05-15T17:10:39.140Z,15.43
2023-05-15T17:13:14.329Z,15.48
2023-05-15T17:15:50.901Z,15.54
2023-05-15T17:18:27.239Z,15.58
2023-05-15T17:21:03.428Z,15.58
2023-05-15T17:23:38.561Z,15.60
2023-05-15T17:26:14.292Z,15.61
2023-05-15T17:28:50.328Z,15.62
2023-05-15T17:31:27.467Z,15.63
2023-05-15T17:34:02.332Z,15.65
2023-05-15T17:36:37.151Z,15.64
2023-05-15T17:39:12.941Z,15.65
2023-05-15T17:41:51.060Z,15.66
2023-05-15T17:44:29.970Z,15.66
2023-05-15T17:47:05.882Z,15.64
2023-05-15T17:49:39.772Z,15.64
2023-05-15T17:52:14.283Z,15.65
2023-05-15T17:54:48.335Z,15.63
2023-05-15T17:57:23.332Z,15.62
2023-05-15T17:59:58.729Z,15.61
2023-05-15T18:02:33.692Z,15.58
2023-05-15T18:05:12.247Z,15.52
2023-05-15T18:07:50.378Z,15.47
2023-05-15T18:10:28.460Z,15.48
2023-05-15T18:13:05.528Z,15.47
2023-05-15T18:15:51.804Z,15.43
2023-05-15T18:18:29.712Z,15.39
2023-05-15T18:21:09.833Z,15.35
2023-05-15T18:24:10.849Z,15.31
2023-05-15T18:26:52.400Z,15.24
2023-05-15T18:29:34.641Z,15.19
2023-05-15T18:32:15.900Z,15.15
2023-05-15T18:34:55.937Z,15.11
2023-05-15T18:37:55.746Z,15.04
2023-05-15T18:40:35.088Z,15.01
2023-05-15T18:43:12.054Z,14.98
2023-05-15T18:45:49.751Z,14.94
2023-05-15T18:48:25.435Z,14.94
2023-05-15T18:51:00.735Z,14.91
2023-05-15T18:53:39.778Z,14.90
2023-05-15T18:56:16.445Z,14.89
2023-05-15T18:58:53.229Z,14.85
2023-05-15T19:01:46.569Z,14.83
2023-05-15T19:04:23.537Z,14.77
2023-05-15T19:07:18.188Z,14.73
2023-05-15T19:09:57.415Z,14.68
2023-05-15T19:12:41.996Z,14.68
2023-05-15T19:15:20.482Z,14.66
2023-05-15T19:17:57.645Z,14.64
2023-05-15T19:20:37.067Z,14.63
2023-05-15T19:23:16.288Z,14.62
2023-05-15T19:25:54.805Z,14.61
2023-05-15T19:28:33.435Z,14.61
2023-05-15T19:31:17.087Z,14.60
2023-05-15T19:34:09.036Z,14.57
2023-05-15T19:36:50.321Z,14.57
2023-05-15T19:39:24.302Z,14.54
2023-05-15T19:42:03.581Z,14.54
2023-05-15T19:44:40.051Z,14.55
2023-05-15T19:47:15.772Z,14.55
2023-05-15T19:49:51.144Z,14.55
2023-05-15T19:52:27.335Z,14.55
2023-05-15T19:55:19.151Z,14.54
2023-05-15T19:57:58.966Z,14.54
2023-05-15T20:00:34.744Z,14.54
2023-05-15T20:03:11.536Z,14.50
2023-05-15T20:05:52.754Z,14.49
2023-05-15T20:08:27.853Z,14.50
2023-05-15T20:11:08.480Z,14.51
2023-05-15T20:13:43.225Z,14.51
2023-05-15T20:16:22.530Z,14.49
2023-05-15T20:19:00.387Z,14.47
2023-05-15T20:21:44.794Z,14.44
2023-05-15T20:24:20.620Z,14.44
2023-05-15T20:26:56.056Z,14.42
2023-05-15T20:29:32.997Z,14.41
2023-05-15T20:32:09.547Z,14.38
2023-05-15T20:34:48.526Z,14.34
2023-05-15T20:37:28.077Z,14.33
2023-05-15T20:40:13.509Z,14.32
2023-05-15T20:42:48.228Z,14.28
2023-05-15T20:45:25.732Z,14.28
2023-05-15T20:48:02.223Z,14.27
2023-05-15T20:50:38.822Z,14.25
2023-05-15T20:53:18.045Z,14.23
2023-05-15T20:55:55.060Z,14.19
2023-05-15T20:58:30.510Z,14.17
2023-05-15T21:01:14.754Z,14.12
2023-05-15T21:03:58.854Z,14.08
2023-05-15T21:06:34.846Z,14.09
2023-05-15T21:09:12.538Z,14.09
2023-05-15T21:11:49.741Z,14.10
2023-05-15T21:14:25.983Z,14.10
2023-05-15T21:17:09.704Z,14.07
2023-05-15T21:19:48.649Z,14.08
2023-05-15T21:22:25.015Z,14.06
2023-05-15T21:25:00.655Z,14.06
2023-05-15T21:27:38.123Z,14.06
2023-05-15T21:30:17.418Z,14.05
2023-05-15T21:32:54.008Z,14.02
2023-05-15T21:35:29.752Z,14.01
2023-05-15T21:38:04.099Z,14.00
2023-05-15T21:40:40.101Z,13.99
2023-05-15T21:43:15.714Z,13.99
2023-05-15T21:45:52.959Z,13.98
2023-05-15T21:48:32.197Z,13.97
2023-05-15T21:51:09.872Z,13.94
2023-05-15T21:53:44.189Z,13.91
2023-05-15T21:56:19.378Z,13.90
2023-05-15T21:59:01.177Z,13.86
2023-05-15T22:01:38.300Z,13.83
2023-05-15T22:04:14.082Z,13.80
2023-05-15T22:07:08.347Z,13.77
2023-05-15T22:09:53.313Z,13.78
2023-05-15T22:12:28.993Z,13.77
2023-05-15T22:15:06.480Z,13.72
2023-05-15T22:17:44.701Z,13.69
2023-05-15T22:20:20.381Z,13.67
2023-05-15T22:22:57.278Z,13.67
2023-05-15T22:25:36.817Z,13.67
2023-05-15T22:28:15.023Z,13.67
2023-05-15T22:30:59.087Z,13.68
2023-05-15T22:33:39.437Z,13.66
2023-05-15T22:36:15.059Z,13.65
2023-05-15T22:38:57.607Z,13.65
2023-05-15T22:41:33.349Z,13.64
2023-05-15T22:44:08.530Z,13.63
2023-05-15T22:46:47.321Z,13.60
2023-05-15T22:49:25.843Z,13.60
2023-05-15T22:52:00.736Z,13.59
2023-05-15T22:54:36.639Z,13.56
2023-05-15T22:57:13.679Z,13.54
2023-05-15T22:59:53.099Z,13.53
2023-05-15T23:02:36.844Z,13.53
2023-05-15T23:05:15.500Z,13.54
2023-05-15T23:07:51.703Z,13.56
2023-05-15T23:10:28.050Z,13.56
2023-05-15T23:13:04.965Z,13.53
2023-05-15T23:15:41.362Z,13.52
2023-05-15T23:18:18.427Z,13.51
2023-05-15T23:20:59.132Z,13.50
2023-05-15T23:23:41.396Z,13.47
2023-05-15T23:26:19.112Z,13.47
2023-05-15T23:28:56.773Z,13.48
2023-05-15T23:31:41.464Z,13.46
2023-05-15T23:34:17.583Z,13.44
2023-05-15T23:36:54.263Z,13.41
2023-05-15T23:39:30.467Z,13.40
2023-05-15T23:42:04.642Z,13.41
2023-05-15T23:44:42.393Z,13.39
2023-05-15T23:47:18.034Z,13.38
2023-05-15T23:49:56.421Z,13.37
2023-05-15T23:52:32.351Z,13.36
2023-05-15T23:55:15.405Z,13.32
2023-05-15T23:57:51.088Z,13.33
